createdAt,value
2023-03-13T00:01:56.350Z,19.23
2023-03-13T00:04:22.930Z,21.77
2023-03-13T00:06:49.707Z,21.23
2023-03-13T00:09:19.132Z,21.05
2023-03-13T00:11:46.023Z,20.88
2023-03-13T00:14:12.650Z,27.92
2023-03-13T00:16:39.801Z,16.83
2023-03-13T00:19:08.306Z,19.98
2023-03-13T00:21:37.687Z,22.42
2023-03-13T00:24:05.184Z,22.08
2023-03-13T00:26:31.631Z,23.35
2023-03-13T00:28:58.515Z,16.88
2023-03-13T00:31:28.158Z,21.77
2023-03-13T00:33:58.000Z,18.48
2023-03-13T00:36:27.320Z,18.92
2023-03-13T00:38:55.138Z,18.67
2023-03-13T00:41:24.364Z,23.58
2023-03-13T00:43:52.012Z,18.83
2023-03-13T00:46:21.749Z,25.92
2023-03-13T00:48:48.537Z,17.95
2023-03-13T00:51:17.191Z,20.67
2023-03-13T00:53:44.747Z,21.20
2023-03-13T00:56:13.908Z,24.90
2023-03-13T00:58:51.071Z,25.60
2023-03-13T01:01:28.459Z,21.23
2023-03-13T01:04:01.513Z,23.25
2023-03-13T01:06:30.394Z,21.48
2023-03-13T01:08:56.964Z,22.15
2023-03-13T01:11:26.512Z,19.77
2023-03-13T01:14:02.750Z,16.35
2023-03-13T01:16:31.080Z,28.25
2023-03-13T01:19:00.807Z,18.63
2023-03-13T01:21:28.016Z,23.25
2023-03-13T01:23:55.156Z,18.20
2023-03-13T01:26:23.606Z,17.73
2023-03-13T01:28:50.451Z,19.13
2023-03-13T01:31:29.288Z,19.75
2023-03-13T01:33:58.136Z,20.52
2023-03-13T01:36:25.351Z,21.40
2023-03-13T01:38:54.924Z,15.02
2023-03-13T01:41:22.074Z,24.00
2023-03-13T01:43:49.177Z,20.00
2023-03-13T01:46:29.658Z,19.20
2023-03-13T01:49:24.831Z,27.55
2023-03-13T01:51:58.102Z,20.15
2023-03-13T01:54:47.686Z,17.00
2023-03-13T01:57:24.875Z,19.73
2023-03-13T02:00:02.420Z,20.60
2023-03-13T02:02:30.110Z,22.40
2023-03-13T02:05:00.491Z,15.93
2023-03-13T02:07:35.082Z,18.08
2023-03-13T02:10:01.672Z,23.58
2023-03-13T02:12:34.552Z,21.85
2023-03-13T02:15:06.815Z,22.65
2023-03-13T02:17:35.670Z,16.98
2023-03-13T02:20:03.010Z,17.80
2023-03-13T02:22:47.737Z,18.02
2023-03-13T02:25:29.114Z,17.25
2023-03-13T02:28:02.053Z,17.13
2023-03-13T02:30:28.510Z,19.55
2023-03-13T02:32:55.701Z,19.05
2023-03-13T02:35:23.715Z,16.63
2023-03-13T02:37:54.772Z,22.95
2023-03-13T02:40:25.456Z,20.25
2023-03-13T02:42:53.435Z,15.63
2023-03-13T02:45:23.274Z,17.10
2023-03-13T02:47:49.970Z,17.92
2023-03-13T02:50:17.575Z,14.80
2023-03-13T02:52:48.516Z,15.85
2023-03-13T02:55:22.464Z,21.33
2023-03-13T02:57:49.077Z,14.10
2023-03-13T03:00:17.478Z,15.18
2023-03-13T03:02:44.972Z,20.00
2023-03-13T03:05:12.786Z,14.13
2023-03-13T03:07:41.735Z,15.77
2023-03-13T03:10:09.032Z,25.95
2023-03-13T03:12:35.514Z,16.42
2023-03-13T03:15:04.767Z,15.32
2023-03-13T03:17:31.382Z,15.23
2023-03-13T03:19:57.904Z,17.60
2023-03-13T03:22:24.372Z,17.98
2023-03-13T03:24:53.082Z,16.90
2023-03-13T03:27:21.004Z,20.48
2023-03-13T03:29:47.478Z,18.15
2023-03-13T03:32:16.923Z,24.50
2023-03-13T03:34:43.896Z,15.40
2023-03-13T03:37:10.519Z,17.45
2023-03-13T03:39:37.145Z,15.70
2023-03-13T03:42:04.740Z,15.25
2023-03-13T03:44:31.324Z,19.73
2023-03-13T03:46:57.946Z,16.38
2023-03-13T03:49:24.474Z,20.33
2023-03-13T03:51:51.060Z,14.95
2023-03-13T03:54:17.577Z,16.30
2023-03-13T03:56:44.271Z,17.58
2023-03-13T03:59:10.835Z,15.82
2023-03-13T04:01:37.486Z,15.38
2023-03-13T04:04:04.093Z,18.77
2023-03-13T04:06:30.752Z,17.67
2023-03-13T04:08:57.244Z,20.15
2023-03-13T04:11:23.973Z,17.17
2023-03-13T04:13:50.678Z,18.52
2023-03-13T04:16:17.472Z,16.50
2023-03-13T04:18:44.416Z,21.65
2023-03-13T04:21:10.936Z,17.55
2023-03-13T04:23:37.498Z,17.08
2023-03-13T04:26:04.047Z,19.27
2023-03-13T04:28:30.470Z,18.98
2023-03-13T04:30:58.292Z,17.88
2023-03-13T04:33:25.372Z,15.32
2023-03-13T04:35:53.587Z,19.30
2023-03-13T04:38:20.198Z,18.65
2023-03-13T04:40:47.965Z,20.08
2023-03-13T04:43:14.464Z,18.05
2023-03-13T04:45:40.958Z,17.50
2023-03-13T04:48:07.436Z,16.52
2023-03-13T04:50:33.922Z,15.38
2023-03-13T04:53:00.616Z,18.23
2023-03-13T04:55:27.160Z,17.17
2023-03-13T04:57:53.908Z,19.40
2023-03-13T05:00:20.741Z,18.98
2023-03-13T05:02:47.352Z,17.38
2023-03-13T05:05:14.002Z,21.98
2023-03-13T05:07:40.571Z,19.63
2023-03-13T05:10:07.562Z,20.50
2023-03-13T05:12:34.115Z,16.17
2023-03-13T05:15:01.308Z,21.95
2023-03-13T05:17:27.889Z,22.45
2023-03-13T05:19:54.387Z,12.32
2023-03-13T05:22:20.902Z,22.15
2023-03-13T05:24:47.656Z,19.92
2023-03-13T05:27:14.214Z,23.58
2023-03-13T05:29:40.887Z,18.83
2023-03-13T05:32:07.460Z,20.67
2023-03-13T05:34:33.960Z,14.00
2023-03-13T05:37:00.528Z,21.10
2023-03-13T05:39:28.971Z,24.30
2023-03-13T05:41:55.526Z,22.05
2023-03-13T05:44:27.490Z,26.23
2023-03-13T05:46:54.439Z,22.35
2023-03-13T05:49:21.102Z,31.05
2023-03-13T05:51:47.622Z,23.20
2023-03-13T05:54:15.588Z,21.95
2023-03-13T05:56:42.203Z,29.70
2023-03-13T05:59:08.702Z,18.17
2023-03-13T06:01:35.156Z,16.00
2023-03-13T06:04:02.226Z,19.85
2023-03-13T06:06:28.830Z,24.08
2023-03-13T06:08:57.920Z,19.40
2023-03-13T06:11:27.143Z,18.05
2023-03-13T06:13:54.381Z,17.85
2023-03-13T06:16:20.952Z,14.55
2023-03-13T06:18:49.015Z,19.95
2023-03-13T06:21:15.736Z,23.80
2023-03-13T06:23:42.383Z,27.33
2023-03-13T06:26:09.737Z,20.60
2023-03-13T06:28:37.720Z,23.02
2023-03-13T06:31:06.035Z,24.00
2023-03-13T06:33:35.836Z,22.85
2023-03-13T06:36:03.522Z,31.27
2023-03-13T06:38:30.596Z,19.67
2023-03-13T06:40:57.246Z,21.77
2023-03-13T06:43:23.983Z,24.10
2023-03-13T06:45:50.904Z,27.17
2023-03-13T06:48:17.702Z,21.45
2023-03-13T06:50:44.453Z,19.52
2023-03-13T06:53:17.032Z,20.98
2023-03-13T06:55:44.356Z,20.10
2023-03-13T06:58:25.344Z,24.75
2023-03-13T07:01:22.697Z,19.45
2023-03-13T07:03:57.182Z,24.02
2023-03-13T07:06:24.095Z,18.15
2023-03-13T07:08:50.670Z,20.00
2023-03-13T07:11:17.272Z,21.25
2023-03-13T07:13:44.059Z,18.88
2023-03-13T07:16:13.188Z,16.70
2023-03-13T07:18:44.796Z,22.13
2023-03-13T07:21:12.109Z,21.27
2023-03-13T07:23:39.138Z,30.42
2023-03-13T07:26:08.233Z,23.48
2023-03-13T07:28:37.565Z,18.77
2023-03-13T07:31:11.347Z,19.20
2023-03-13T07:33:37.858Z,15.98
2023-03-13T07:36:05.079Z,24.50
2023-03-13T07:38:31.536Z,15.55
2023-03-13T07:40:58.330Z,23.50
2023-03-13T07:43:25.793Z,17.08
2023-03-13T07:45:56.771Z,22.13
2023-03-13T07:48:25.575Z,19.15
2023-03-13T07:50:54.095Z,19.40
2023-03-13T07:53:23.416Z,16.60
2023-03-13T07:55:53.979Z,15.98
2023-03-13T07:58:20.910Z,16.35
2023-03-13T08:00:47.665Z,23.92
2023-03-13T08:03:14.403Z,23.48
2023-03-13T08:05:41.633Z,20.67
2023-03-13T08:08:08.916Z,17.40
2023-03-13T08:10:35.443Z,24.55
2023-03-13T08:13:02.264Z,13.63
2023-03-13T08:15:28.800Z,18.75
2023-03-13T08:17:58.501Z,25.25
2023-03-13T08:20:25.267Z,19.13
2023-03-13T08:22:51.787Z,16.42
2023-03-13T08:25:18.418Z,18.65
2023-03-13T08:27:44.966Z,20.00
2023-03-13T08:30:12.510Z,11.70
2023-03-13T08:32:39.687Z,17.02
2023-03-13T08:46:43.645Z,19.10
2023-03-13T08:53:15.615Z,14.82
2023-03-13T08:55:44.617Z,17.70
2023-03-13T08:58:11.587Z,18.20
2023-03-13T09:00:41.179Z,15.55
2023-03-13T09:03:08.020Z,16.95
2023-03-13T09:05:54.649Z,16.75
2023-03-13T09:08:23.185Z,15.68
2023-03-13T09:10:56.968Z,14.35
2023-03-13T09:13:24.791Z,16.38
2023-03-13T09:16:02.632Z,12.68
2023-03-13T09:18:29.532Z,17.40
2023-03-13T09:20:56.140Z,14.07
2023-03-13T09:23:23.326Z,15.35
2023-03-13T09:25:52.991Z,12.23
2023-03-13T09:28:19.966Z,13.63
2023-03-13T09:30:46.517Z,12.23
2023-03-13T09:33:13.041Z,17.73
2023-03-13T09:35:39.866Z,15.93
2023-03-13T09:38:07.034Z,19.90
2023-03-13T09:40:48.685Z,16.58
2023-03-13T09:43:40.462Z,11.50
2023-03-13T09:46:16.589Z,17.63
2023-03-13T09:48:49.554Z,17.75
2023-03-13T09:51:28.017Z,14.93
2023-03-13T09:54:03.927Z,16.10
2023-03-13T09:56:40.776Z,13.95
2023-03-13T09:59:30.497Z,15.68
2023-03-13T10:01:59.053Z,9.27
2023-03-13T10:04:41.746Z,15.63
2023-03-13T10:07:12.491Z,16.50
2023-03-13T10:09:40.919Z,11.45
2023-03-13T10:12:20.905Z,9.80
2023-03-13T10:15:16.945Z,11.25
2023-03-13T10:17:43.676Z,11.38
2023-03-13T10:20:25.665Z,14.40
2023-03-13T10:23:03.211Z,12.43
2023-03-13T10:25:34.960Z,9.70
2023-03-13T10:28:02.481Z,8.38
2023-03-13T10:30:31.817Z,13.35
2023-03-13T10:33:18.971Z,10.45
2023-03-13T10:35:46.235Z,8.60
2023-03-13T10:38:19.940Z,9.35
2023-03-13T10:41:01.261Z,11.02
2023-03-13T10:43:30.069Z,8.52
2023-03-13T10:45:56.965Z,10.93
2023-03-13T10:48:31.623Z,9.25
2023-03-13T10:51:02.498Z,12.48
2023-03-13T10:53:29.459Z,6.10
2023-03-13T10:56:00.798Z,7.93
2023-03-13T10:58:47.468Z,8.55
2023-03-13T11:01:19.079Z,7.18
2023-03-13T11:06:23.913Z,10.02
2023-03-13T11:08:58.051Z,7.65
2023-03-13T11:11:30.807Z,6.47
2023-03-13T11:14:15.047Z,7.03
2023-03-13T11:16:49.470Z,8.27
2023-03-13T11:19:34.253Z,6.80
2023-03-13T11:22:25.376Z,7.38
2023-03-13T11:25:00.939Z,8.40
2023-03-13T11:27:46.070Z,5.40
2023-03-13T11:31:07.874Z,5.82
2023-03-13T11:34:17.201Z,4.80
2023-03-13T11:36:53.523Z,6.97
2023-03-13T11:39:34.029Z,5.15
2023-03-13T11:42:07.337Z,5.20
2023-03-13T11:45:08.315Z,3.47
2023-03-13T11:47:50.083Z,6.88
2023-03-13T11:50:27.328Z,4.18
2023-03-13T11:53:17.240Z,3.58
2023-03-13T11:55:59.378Z,4.38
2023-03-13T11:58:52.738Z,4.72
2023-03-13T12:01:22.998Z,4.85
2023-03-13T12:04:05.496Z,5.72
2023-03-13T12:06:36.123Z,4.50
2023-03-13T12:09:16.484Z,4.85
2023-03-13T12:12:03.201Z,5.20
2023-03-13T12:14:41.417Z,3.95
2023-03-13T12:17:24.697Z,3.88
2023-03-13T12:20:01.146Z,4.05
2023-03-13T12:22:35.775Z,5.32
2023-03-13T12:25:25.958Z,4.25
2023-03-13T12:30:33.858Z,3.22
2023-03-13T12:33:25.175Z,3.03
2023-03-13T12:36:26.272Z,2.38
2023-03-13T12:39:05.416Z,4.82
2023-03-13T12:41:42.017Z,4.07
2023-03-13T12:44:18.508Z,3.90
2023-03-13T12:47:12.957Z,3.40
2023-03-13T12:49:54.633Z,4.88
2023-03-13T12:52:33.376Z,4.32
2023-03-13T12:55:23.735Z,4.53
2023-03-13T12:58:30.540Z,6.32
2023-03-13T13:01:03.723Z,4.32
2023-03-13T13:03:39.080Z,2.55
2023-03-13T13:06:24.509Z,4.05
2023-03-13T13:08:54.027Z,2.40
2023-03-13T13:11:39.174Z,3.75
2023-03-13T13:14:18.058Z,3.33
2023-03-13T13:16:54.859Z,3.05
2023-03-13T13:19:24.459Z,3.42
2023-03-13T13:22:28.962Z,2.17
2023-03-13T13:24:57.776Z,3.97
2023-03-13T13:27:31.345Z,3.30
2023-03-13T13:30:19.176Z,3.42
2023-03-13T13:32:56.900Z,4.70
2023-03-13T13:35:34.452Z,3.60
2023-03-13T13:41:09.415Z,3.42
2023-03-13T13:46:10.651Z,4.63
2023-03-13T13:48:44.400Z,3.35
2023-03-13T13:51:11.733Z,2.75
2023-03-13T13:53:58.167Z,3.45
2023-03-13T13:56:43.681Z,2.67
2023-03-13T13:59:22.832Z,2.65
2023-03-13T14:02:11.021Z,4.07
2023-03-13T14:04:42.220Z,5.13
2023-03-13T14:07:33.296Z,3.42
2023-03-13T14:10:05.928Z,5.35
2023-03-13T14:12:38.182Z,4.30
2023-03-13T14:15:21.687Z,6.55
2023-03-13T14:18:00.551Z,4.00
2023-03-13T14:20:38.468Z,3.50
2023-03-13T14:23:11.638Z,3.45
2023-03-13T14:25:49.557Z,3.55
2023-03-13T14:28:25.298Z,3.75
2023-03-13T14:30:54.862Z,3.05
2023-03-13T14:33:21.362Z,2.40
2023-03-13T14:35:48.696Z,2.63
2023-03-13T14:38:26.627Z,3.55
2023-03-13T14:40:55.698Z,4.65
2023-03-13T14:43:42.448Z,3.78
2023-03-13T14:46:31.055Z,4.85
2023-03-13T14:49:05.089Z,3.95
2023-03-13T14:51:31.879Z,3.75
2023-03-13T14:54:01.528Z,4.38
2023-03-13T14:56:38.067Z,3.40
2023-03-13T14:59:14.861Z,4.82
2023-03-13T15:01:41.427Z,3.42
2023-03-13T15:04:08.053Z,3.72
2023-03-13T15:06:34.596Z,3.80
2023-03-13T15:09:16.386Z,4.75
2023-03-13T15:11:54.832Z,3.40
2023-03-13T15:14:39.936Z,5.45
2023-03-13T15:17:19.390Z,3.05
2023-03-13T15:19:51.676Z,3.30
2023-03-13T15:22:20.387Z,3.80
2023-03-13T15:24:56.290Z,4.63
2023-03-13T15:27:31.435Z,4.88
2023-03-13T15:29:57.929Z,2.60
2023-03-13T15:32:34.786Z,3.97
2023-03-13T15:35:01.925Z,2.78
2023-03-13T15:37:30.177Z,3.55
2023-03-13T15:39:57.284Z,4.13
2023-03-13T15:42:25.793Z,4.22
2023-03-13T15:44:52.439Z,4.47
2023-03-13T15:47:21.716Z,2.67
2023-03-13T15:49:48.488Z,4.88
2023-03-13T15:52:22.545Z,5.15
2023-03-13T15:54:50.137Z,4.60
2023-03-13T15:57:22.917Z,5.35
2023-03-13T15:59:50.828Z,4.00
2023-03-13T16:02:20.372Z,4.47
2023-03-13T16:04:47.393Z,4.38
2023-03-13T16:07:16.646Z,5.50
2023-03-13T16:09:44.002Z,5.07
2023-03-13T16:12:11.531Z,5.88
2023-03-13T16:14:38.745Z,5.35
2023-03-13T16:17:15.240Z,3.63
2023-03-13T16:19:42.903Z,4.50
2023-03-13T16:22:10.118Z,4.88
2023-03-13T16:24:38.658Z,4.30
2023-03-13T16:27:15.825Z,4.75
2023-03-13T16:29:42.831Z,3.40
2023-03-13T16:32:17.308Z,4.93
2023-03-13T16:34:44.184Z,2.97
2023-03-13T16:37:17.352Z,5.38
2023-03-13T16:39:45.155Z,4.97
2023-03-13T16:42:12.027Z,5.55
2023-03-13T16:44:43.281Z,4.03
2023-03-13T16:47:29.788Z,7.05
2023-03-13T16:49:56.489Z,3.78
2023-03-13T16:52:23.137Z,3.85
2023-03-13T16:54:49.635Z,5.07
2023-03-13T16:57:26.360Z,5.03
2023-03-13T16:59:52.929Z,4.55
2023-03-13T17:02:20.936Z,6.07
2023-03-13T17:04:49.011Z,5.75
2023-03-13T17:07:27.809Z,52.13
2023-03-13T17:09:54.562Z,48.78
2023-03-13T17:12:21.057Z,6.50
2023-03-13T17:14:48.010Z,5.85
2023-03-13T17:17:22.976Z,4.10
2023-03-13T17:19:49.456Z,3.40
2023-03-13T17:22:17.619Z,4.97
2023-03-13T17:24:44.768Z,6.47
2023-03-13T17:27:16.172Z,4.07
2023-03-13T17:29:43.509Z,5.45
2023-03-13T17:32:14.484Z,6.75
2023-03-13T17:34:41.529Z,6.93
2023-03-13T17:37:22.580Z,5.13
2023-03-13T17:39:51.339Z,5.60
2023-03-13T17:42:18.535Z,4.95
2023-03-13T17:44:45.192Z,3.72
2023-03-13T17:47:14.820Z,4.68
2023-03-13T17:49:42.036Z,7.32
2023-03-13T17:52:13.334Z,5.10
2023-03-13T17:57:18.765Z,3.95
2023-03-13T17:59:46.491Z,4.20
2023-03-13T18:02:14.954Z,6.07
2023-03-13T18:04:42.541Z,4.88
2023-03-13T18:07:24.888Z,5.22
2023-03-13T18:09:51.630Z,4.43
2023-03-13T18:12:18.610Z,5.55
2023-03-13T18:14:45.176Z,5.07
2023-03-13T18:17:20.674Z,4.78
2023-03-13T18:19:48.296Z,3.83
2023-03-13T18:22:17.118Z,4.55
2023-03-13T18:24:44.643Z,3.85
2023-03-13T18:27:14.344Z,6.30
2023-03-13T18:29:41.222Z,6.30
2023-03-13T18:32:10.180Z,5.30
2023-03-13T18:34:36.762Z,3.35
2023-03-13T18:37:03.921Z,5.65
2023-03-13T18:39:32.258Z,3.95
2023-03-13T18:41:59.850Z,7.00
2023-03-13T18:44:28.776Z,6.43
2023-03-13T18:46:55.293Z,3.72
2023-03-13T18:49:23.533Z,5.88
2023-03-13T18:51:52.357Z,4.30
2023-03-13T18:54:18.970Z,4.40
2023-03-13T18:56:46.038Z,4.60
2023-03-13T18:59:14.663Z,5.50
2023-03-13T19:01:41.230Z,5.38
2023-03-13T19:04:07.765Z,4.70
2023-03-13T19:06:36.458Z,4.32
2023-03-13T19:09:31.597Z,4.82
2023-03-13T19:11:58.016Z,4.57
2023-03-13T19:14:24.459Z,4.85
2023-03-13T19:16:55.793Z,4.30
2023-03-13T19:21:50.863Z,4.72
2023-03-13T19:24:17.816Z,5.20
2023-03-13T19:26:50.125Z,5.10
2023-03-13T19:29:19.307Z,3.80
2023-03-13T19:31:46.847Z,4.40
2023-03-13T19:34:14.345Z,4.05
2023-03-13T19:36:45.482Z,5.55
2023-03-13T19:39:16.552Z,6.35
2023-03-13T19:41:43.343Z,5.28
2023-03-13T19:44:09.838Z,4.47
2023-03-13T19:46:39.340Z,5.50
2023-03-13T19:49:05.998Z,6.38
2023-03-13T19:51:33.034Z,4.88
2023-03-13T19:54:02.534Z,4.20
2023-03-13T19:56:31.038Z,5.55
2023-03-13T19:59:06.026Z,4.43
2023-03-13T20:01:33.055Z,4.88
2023-03-13T20:03:59.651Z,4.03
2023-03-13T20:06:28.795Z,5.88
2023-03-13T20:08:57.148Z,6.85
2023-03-13T20:11:25.505Z,4.75
2023-03-13T20:13:52.909Z,5.25
2023-03-13T20:16:20.232Z,6.15
2023-03-13T20:18:49.774Z,5.47
2023-03-13T20:21:17.470Z,5.70
2023-03-13T20:23:48.794Z,5.00
2023-03-13T20:28:45.253Z,4.82
2023-03-13T20:31:14.279Z,6.07
2023-03-13T20:33:41.257Z,5.65
2023-03-13T20:36:10.739Z,5.55
2023-03-13T20:38:41.325Z,5.25
2023-03-13T20:41:08.656Z,6.75
2023-03-13T20:43:36.014Z,7.50
2023-03-13T20:46:02.985Z,6.18
2023-03-13T20:48:30.102Z,6.68
2023-03-13T20:50:59.483Z,7.60
2023-03-13T20:53:27.489Z,7.25
2023-03-13T20:55:56.927Z,5.55
2023-03-13T20:58:24.122Z,5.82
2023-03-13T21:00:50.661Z,6.20
2023-03-13T21:03:18.926Z,10.15
2023-03-13T21:05:46.318Z,6.72
2023-03-13T21:08:12.792Z,8.80
2023-03-13T21:10:40.732Z,4.82
2023-03-13T21:13:10.108Z,8.00
2023-03-13T21:15:36.813Z,6.85
2023-03-13T21:18:04.039Z,7.22
2023-03-13T21:20:31.014Z,5.80
2023-03-13T21:22:57.583Z,6.15
2023-03-13T21:25:24.328Z,4.43
2023-03-13T21:27:50.907Z,4.78
2023-03-13T21:30:20.626Z,6.53
2023-03-13T21:32:47.897Z,7.68
2023-03-13T21:35:16.821Z,6.85
2023-03-13T21:37:43.887Z,4.95
2023-03-13T21:40:11.275Z,6.80
2023-03-13T21:42:37.757Z,5.70
2023-03-13T21:45:05.451Z,6.13
2023-03-13T21:47:36.620Z,6.20
2023-03-13T21:50:05.548Z,5.88
2023-03-13T21:52:41.280Z,5.68
2023-03-13T21:55:12.919Z,5.07
2023-03-13T21:57:39.554Z,6.30
2023-03-13T22:00:08.392Z,7.30
2023-03-13T22:02:36.273Z,6.93
2023-03-13T22:05:04.590Z,7.55
2023-03-13T22:07:31.333Z,6.30
2023-03-13T22:09:58.186Z,5.65
2023-03-13T22:12:25.521Z,5.20
2023-03-13T22:14:52.515Z,5.00
2023-03-13T22:17:19.757Z,6.65
2023-03-13T22:19:47.212Z,5.03
2023-03-13T22:22:14.041Z,5.65
2023-03-13T22:24:40.520Z,4.70
2023-03-13T22:27:07.542Z,4.95
2023-03-13T22:29:44.293Z,4.47
2023-03-13T22:32:10.889Z,4.38
2023-03-13T22:34:37.708Z,4.38
2023-03-13T22:37:06.988Z,6.95
2023-03-13T22:39:33.508Z,6.78
2023-03-13T22:42:00.006Z,4.47
2023-03-13T22:44:26.528Z,4.38
2023-03-13T22:46:53.050Z,4.15
2023-03-13T22:49:19.503Z,5.35
2023-03-13T22:51:49.040Z,4.93
2023-03-13T22:54:15.516Z,5.72
2023-03-13T22:56:42.054Z,4.50
2023-03-13T22:59:08.587Z,6.95
2023-03-13T23:01:36.158Z,4.28
2023-03-13T23:04:02.830Z,4.85
2023-03-13T23:06:31.751Z,4.07
2023-03-13T23:08:58.251Z,4.95
2023-03-13T23:11:24.817Z,4.50
2023-03-13T23:13:51.280Z,3.70
2023-03-13T23:16:17.751Z,3.70
2023-03-13T23:18:44.208Z,4.05
2023-03-13T23:21:13.222Z,3.42
2023-03-13T23:23:39.992Z,4.60
2023-03-13T23:26:09.292Z,4.78
2023-03-13T23:28:37.047Z,5.85
2023-03-13T23:31:21.275Z,3.63
2023-03-13T23:33:48.813Z,4.70
2023-03-13T23:36:18.369Z,4.13
2023-03-13T23:38:49.268Z,4.53
2023-03-13T23:41:15.782Z,4.30
2023-03-13T23:43:42.663Z,5.22
2023-03-13T23:46:16.596Z,4.32
2023-03-13T23:48:43.139Z,2.88
2023-03-13T23:51:09.694Z,4.25
2023-03-13T23:53:41.483Z,2.80
2023-03-13T23:56:09.334Z,3.35
2023-03-13T23:58:35.850Z,3.55
